createdAt,value
2023-03-21T00:01:53.288Z,11.10
2023-03-21T00:04:21.699Z,9.33
2023-03-21T00:06:49.053Z,8.73
2023-03-21T00:09:16.188Z,10.90
2023-03-21T00:11:43.397Z,8.40
2023-03-21T00:14:14.735Z,8.70
2023-03-21T00:16:45.775Z,10.00
2023-03-21T00:19:14.564Z,11.00
2023-03-21T00:22:05.879Z,10.53
2023-03-21T00:24:30.290Z,8.87
2023-03-21T00:27:06.031Z,12.33
2023-03-21T00:29:43.065Z,10.83
2023-03-21T00:32:10.046Z,10.70
2023-03-21T00:34:43.217Z,10.00
2023-03-21T00:37:18.894Z,11.07
2023-03-21T00:39:49.474Z,10.93
2023-03-21T00:42:17.053Z,9.10
2023-03-21T00:44:44.885Z,11.97
2023-03-21T00:47:12.975Z,11.23
2023-03-21T00:49:40.315Z,13.40
2023-03-21T00:52:18.281Z,14.17
2023-03-21T00:54:49.542Z,10.63
2023-03-21T00:57:16.900Z,11.57
2023-03-21T00:59:44.051Z,12.07
2023-03-21T01:08:29.294Z,10.73
2023-03-21T01:11:03.501Z,13.67
2023-03-21T01:13:31.093Z,13.83
2023-03-21T01:16:00.206Z,11.17
2023-03-21T01:18:30.404Z,11.67
2023-03-21T01:20:59.353Z,12.43
2023-03-21T01:23:27.927Z,11.03
2023-03-21T01:25:56.723Z,15.47
2023-03-21T01:28:26.627Z,17.20
2023-03-21T01:30:53.701Z,12.47
2023-03-21T01:33:22.435Z,13.80
2023-03-21T01:35:57.414Z,13.53
2023-03-21T01:38:30.287Z,13.10
2023-03-21T01:41:00.546Z,14.57
2023-03-21T01:43:49.500Z,14.13
2023-03-21T01:46:51.837Z,15.90
2023-03-21T01:49:34.475Z,13.40
2023-03-21T01:52:12.172Z,13.90
2023-03-21T01:54:44.574Z,14.20
2023-03-21T01:57:17.075Z,14.97
2023-03-21T01:59:50.410Z,16.13
2023-03-21T02:02:23.325Z,15.30
2023-03-21T02:04:56.201Z,14.47
2023-03-21T02:07:29.834Z,14.30
2023-03-21T02:09:58.237Z,12.23
2023-03-21T02:12:27.108Z,14.30
2023-03-21T02:14:54.935Z,16.07
2023-03-21T02:17:54.861Z,14.23
2023-03-21T02:21:01.524Z,13.53
2023-03-21T02:26:48.203Z,16.27
2023-03-21T02:29:56.944Z,14.40
2023-03-21T02:33:03.684Z,12.20
2023-03-21T02:36:05.629Z,14.87
2023-03-21T02:39:08.105Z,14.33
2023-03-21T02:42:06.413Z,12.80
2023-03-21T02:44:44.373Z,16.40
2023-03-21T02:47:18.598Z,16.47
2023-03-21T02:49:56.615Z,16.50
2023-03-21T02:52:38.797Z,18.03
2023-03-21T02:55:15.669Z,14.47
2023-03-21T02:57:45.370Z,16.90
2023-03-21T03:00:33.668Z,15.47
2023-03-21T03:03:09.680Z,15.50
2023-03-21T03:05:45.065Z,14.57
2023-03-21T03:09:01.870Z,15.33
2023-03-21T03:11:46.914Z,15.33
2023-03-21T03:15:02.151Z,16.93
2023-03-21T03:17:59.018Z,15.70
2023-03-21T03:20:53.999Z,18.73
2023-03-21T03:24:01.368Z,15.43
2023-03-21T03:26:37.196Z,19.53
2023-03-21T03:29:09.643Z,17.97
2023-03-21T03:31:41.903Z,16.17
2023-03-21T03:34:12.913Z,18.23
2023-03-21T03:36:44.807Z,15.07
2023-03-21T03:39:13.615Z,19.87
2023-03-21T03:42:12.487Z,17.47
2023-03-21T03:44:34.964Z,16.13
2023-03-21T03:47:06.589Z,14.63
2023-03-21T03:49:42.585Z,17.50
2023-03-21T03:52:20.445Z,18.77
2023-03-21T03:54:51.243Z,17.60
2023-03-21T03:57:19.392Z,14.03
2023-03-21T03:59:47.372Z,13.93
2023-03-21T04:02:14.735Z,15.00
2023-03-21T04:04:42.029Z,14.23
2023-03-21T04:07:09.197Z,13.40
2023-03-21T04:09:44.203Z,13.77
2023-03-21T04:12:13.220Z,16.73
2023-03-21T04:14:45.688Z,16.23
2023-03-21T04:17:14.014Z,14.50
2023-03-21T04:19:40.968Z,12.80
2023-03-21T04:22:08.106Z,17.00
2023-03-21T04:24:37.593Z,12.57
2023-03-21T04:27:06.056Z,20.17
2023-03-21T04:29:33.359Z,16.20
2023-03-21T04:32:01.523Z,13.83
2023-03-21T04:34:29.023Z,18.47
2023-03-21T04:36:56.986Z,12.80
2023-03-21T04:39:24.829Z,17.00
2023-03-21T04:41:51.935Z,15.33
2023-03-21T04:44:19.044Z,15.43
2023-03-21T04:46:46.202Z,13.33
2023-03-21T04:49:13.234Z,13.30
2023-03-21T04:51:40.660Z,12.57
2023-03-21T04:56:36.232Z,13.17
2023-03-21T04:59:09.010Z,13.10
2023-03-21T05:01:36.024Z,12.27
2023-03-21T05:04:04.774Z,11.63
2023-03-21T05:06:32.178Z,11.83
2023-03-21T05:09:00.608Z,11.90
2023-03-21T05:11:30.967Z,14.27
2023-03-21T05:13:59.293Z,13.90
2023-03-21T05:16:30.834Z,12.53
2023-03-21T05:18:59.344Z,10.57
2023-03-21T05:21:29.506Z,13.97
2023-03-21T05:23:58.530Z,14.83
2023-03-21T05:26:25.771Z,10.57
2023-03-21T05:28:53.211Z,11.37
2023-03-21T05:31:21.020Z,9.53
2023-03-21T05:33:48.454Z,14.50
2023-03-21T05:36:16.058Z,11.07
2023-03-21T05:38:45.786Z,11.27
2023-03-21T05:41:14.258Z,9.27
2023-03-21T05:43:41.988Z,12.23
2023-03-21T05:46:09.912Z,12.47
2023-03-21T05:48:36.945Z,11.93
2023-03-21T05:51:04.535Z,11.80
2023-03-21T05:53:31.851Z,10.50
2023-03-21T05:55:58.829Z,12.50
2023-03-21T05:58:25.928Z,14.13
2023-03-21T06:01:07.588Z,12.47
2023-03-21T06:03:34.654Z,12.27
2023-03-21T06:06:03.583Z,11.40
2023-03-21T06:08:31.896Z,12.53
2023-03-21T06:10:58.925Z,13.37
2023-03-21T06:13:26.030Z,12.67
2023-03-21T06:15:53.218Z,11.67
2023-03-21T06:18:20.266Z,12.30
2023-03-21T06:20:47.251Z,10.07
2023-03-21T06:23:14.253Z,10.80
2023-03-21T06:25:41.366Z,13.60
2023-03-21T06:28:08.401Z,11.23
2023-03-21T06:30:35.427Z,9.43
2023-03-21T06:33:02.426Z,10.07
2023-03-21T06:35:29.437Z,12.57
2023-03-21T06:37:58.533Z,13.70
2023-03-21T06:40:25.541Z,11.50
2023-03-21T06:42:52.528Z,11.87
2023-03-21T06:45:19.485Z,12.93
2023-03-21T06:47:46.598Z,15.17
2023-03-21T06:50:13.684Z,14.47
2023-03-21T06:52:40.703Z,15.50
2023-03-21T06:55:08.128Z,13.87
2023-03-21T06:57:35.085Z,12.63
2023-03-21T07:00:02.237Z,14.07
2023-03-21T07:02:29.666Z,12.73
2023-03-21T07:04:56.899Z,12.67
2023-03-21T07:07:27.221Z,11.83
2023-03-21T07:09:54.220Z,12.83
2023-03-21T07:12:24.182Z,11.50
2023-03-21T07:14:51.314Z,8.97
2023-03-21T07:17:18.313Z,10.57
2023-03-21T07:19:45.317Z,11.30
2023-03-21T07:22:12.368Z,11.23
2023-03-21T07:24:39.326Z,10.73
2023-03-21T07:27:06.460Z,10.73
2023-03-21T07:29:33.581Z,9.37
2023-03-21T07:32:00.705Z,16.00
2023-03-21T07:34:31.655Z,12.60
2023-03-21T07:36:58.655Z,14.93
2023-03-21T07:39:26.187Z,10.77
2023-03-21T07:41:55.743Z,8.43
2023-03-21T07:44:24.400Z,13.43
2023-03-21T07:46:51.388Z,11.90
2023-03-21T07:49:18.394Z,11.93
2023-03-21T07:51:45.396Z,12.93
2023-03-21T07:54:12.419Z,14.50
2023-03-21T07:56:39.458Z,11.47
2023-03-21T07:59:06.511Z,8.97
2023-03-21T08:01:33.965Z,13.23
2023-03-21T08:04:00.948Z,9.10
2023-03-21T08:06:29.048Z,9.77
2023-03-21T08:08:56.093Z,12.30
2023-03-21T08:11:23.800Z,11.53
2023-03-21T08:13:51.454Z,10.30
2023-03-21T08:16:18.801Z,7.77
2023-03-21T08:18:45.999Z,13.50
2023-03-21T08:21:13.015Z,11.13
2023-03-21T08:23:40.245Z,11.33
2023-03-21T08:26:07.811Z,12.37
2023-03-21T08:28:35.348Z,9.00
2023-03-21T08:31:08.538Z,16.77
2023-03-21T08:33:35.611Z,9.00
2023-03-21T08:36:02.977Z,8.83
2023-03-21T08:38:30.371Z,8.20
2023-03-21T08:41:00.091Z,8.53
2023-03-21T08:43:28.021Z,7.87
2023-03-21T08:45:55.736Z,8.37
2023-03-21T08:48:23.038Z,10.43
2023-03-21T08:50:50.295Z,9.57
2023-03-21T08:53:19.751Z,9.67
2023-03-21T08:55:46.859Z,13.93
2023-03-21T08:58:13.927Z,12.77
2023-03-21T09:00:41.076Z,9.67
2023-03-21T09:03:09.479Z,10.37
2023-03-21T09:05:38.594Z,9.37
2023-03-21T09:08:05.812Z,13.23
2023-03-21T09:10:32.900Z,9.90
2023-03-21T09:12:59.930Z,9.57
2023-03-21T09:15:29.024Z,9.50
2023-03-21T09:17:58.878Z,7.70
2023-03-21T09:20:31.229Z,10.03
2023-03-21T09:22:59.326Z,10.63
2023-03-21T09:25:31.711Z,7.43
2023-03-21T09:28:00.392Z,8.50
2023-03-21T09:30:28.358Z,9.20
2023-03-21T09:32:55.982Z,9.50
2023-03-21T09:35:24.420Z,9.20
2023-03-21T09:37:51.689Z,11.23
2023-03-21T09:40:27.489Z,11.70
2023-03-21T09:43:34.316Z,10.47
2023-03-21T09:46:41.279Z,11.20
2023-03-21T09:49:18.179Z,9.60
2023-03-21T09:51:48.933Z,9.00
2023-03-21T09:54:27.446Z,10.60
2023-03-21T09:56:58.308Z,10.77
2023-03-21T09:59:35.877Z,9.23
2023-03-21T10:02:04.194Z,6.70
2023-03-21T10:04:34.044Z,10.77
2023-03-21T10:07:02.804Z,9.43
2023-03-21T10:09:32.612Z,10.37
2023-03-21T10:12:08.412Z,7.10
2023-03-21T10:14:42.956Z,6.57
2023-03-21T10:17:33.808Z,9.80
2023-03-21T10:20:25.038Z,5.90
2023-03-21T10:22:56.124Z,6.27
2023-03-21T10:26:03.812Z,12.03
2023-03-21T10:28:49.897Z,7.30
2023-03-21T10:31:22.290Z,6.97
2023-03-21T10:33:51.268Z,9.00
2023-03-21T10:36:22.833Z,6.00
2023-03-21T10:39:00.412Z,7.73
2023-03-21T10:41:27.828Z,9.13
2023-03-21T10:44:32.474Z,6.87
2023-03-21T10:47:06.439Z,6.30
2023-03-21T10:49:40.598Z,8.60
2023-03-21T10:52:21.546Z,6.53
2023-03-21T10:54:49.052Z,8.17
2023-03-21T10:57:22.584Z,10.20
2023-03-21T11:00:00.364Z,10.93
2023-03-21T11:02:38.214Z,9.57
2023-03-21T11:05:09.582Z,7.90
2023-03-21T11:07:37.854Z,7.27
2023-03-21T11:10:26.480Z,7.87
2023-03-21T11:12:57.841Z,8.17
2023-03-21T11:16:04.549Z,9.33
2023-03-21T11:18:33.378Z,7.13
2023-03-21T11:21:10.552Z,8.07
2023-03-21T11:23:44.699Z,5.40
2023-03-21T11:26:24.043Z,6.13
2023-03-21T11:28:52.067Z,8.17
2023-03-21T11:31:19.321Z,7.07
2023-03-21T11:34:07.777Z,8.73
2023-03-21T11:36:39.303Z,7.33
2023-03-21T11:39:29.118Z,5.27
2023-03-21T11:41:56.545Z,10.97
2023-03-21T11:44:31.624Z,9.60
2023-03-21T11:46:59.455Z,7.13
2023-03-21T11:49:28.265Z,6.83
2023-03-21T11:52:23.611Z,7.90
2023-03-21T11:55:18.066Z,9.18
2023-03-21T11:58:05.347Z,5.37
2023-03-21T12:00:55.219Z,7.37
2023-03-21T12:03:49.054Z,6.73
2023-03-21T12:06:25.892Z,8.33
2023-03-21T12:09:04.056Z,7.10
2023-03-21T12:12:10.898Z,7.17
2023-03-21T12:15:18.071Z,7.53
2023-03-21T12:18:24.827Z,5.43
2023-03-21T12:21:20.950Z,9.37
2023-03-21T12:24:14.920Z,7.22
2023-03-21T12:27:07.186Z,7.60
2023-03-21T12:30:13.920Z,7.70
2023-03-21T12:33:09.217Z,7.03
2023-03-21T12:35:56.489Z,7.88
2023-03-21T12:38:28.866Z,8.43
2023-03-21T12:41:22.136Z,7.13
2023-03-21T12:44:13.118Z,8.70
2023-03-21T12:47:01.512Z,7.07
2023-03-21T12:49:55.222Z,9.40
2023-03-21T12:52:27.108Z,6.10
2023-03-21T12:55:17.316Z,5.87
2023-03-21T12:58:16.713Z,7.80
2023-03-21T13:01:01.734Z,8.20
2023-03-21T13:03:40.217Z,9.75
2023-03-21T13:06:11.012Z,11.97
2023-03-21T13:09:23.262Z,9.03
2023-03-21T13:11:57.527Z,8.23
2023-03-21T13:14:30.876Z,8.93
2023-03-21T13:17:06.827Z,7.90
2023-03-21T13:19:58.757Z,7.47
2023-03-21T13:22:29.063Z,7.30
2023-03-21T13:25:18.582Z,9.97
2023-03-21T13:27:55.473Z,7.13
2023-03-21T13:30:27.581Z,7.03
2023-03-21T13:33:15.664Z,9.10
2023-03-21T13:35:44.614Z,7.37
2023-03-21T13:38:21.542Z,11.03
2023-03-21T13:41:12.029Z,7.90
2023-03-21T13:44:15.882Z,7.43
2023-03-21T13:46:54.397Z,7.00
2023-03-21T13:49:32.804Z,7.80
2023-03-21T13:52:01.139Z,6.27
2023-03-21T13:54:49.642Z,8.03
2023-03-21T13:57:39.041Z,7.50
2023-03-21T14:00:29.451Z,7.80
2023-03-21T14:03:03.031Z,8.00
2023-03-21T14:05:30.483Z,7.37
2023-03-21T14:08:12.687Z,7.97
2023-03-21T14:10:45.811Z,6.13
2023-03-21T14:13:16.554Z,9.43
2023-03-21T14:15:55.957Z,9.10
2023-03-21T14:18:35.514Z,11.00
2023-03-21T14:21:25.126Z,7.33
2023-03-21T14:24:12.952Z,7.00
2023-03-21T14:26:45.629Z,7.67
2023-03-21T14:29:38.366Z,9.80
2023-03-21T14:32:06.094Z,10.77
2023-03-21T14:34:35.850Z,7.60
2023-03-21T14:37:06.793Z,9.20
2023-03-21T14:39:33.815Z,8.97
2023-03-21T14:42:05.526Z,9.03
2023-03-21T14:45:00.545Z,7.10
2023-03-21T14:47:29.468Z,8.40
2023-03-21T14:49:58.144Z,8.73
2023-03-21T14:52:30.194Z,8.57
2023-03-21T14:54:58.018Z,8.07
2023-03-21T14:57:30.605Z,8.63
2023-03-21T15:00:02.054Z,8.17
2023-03-21T15:02:34.671Z,8.17
2023-03-21T15:05:31.082Z,7.43
2023-03-21T15:08:22.402Z,6.77
2023-03-21T15:11:13.046Z,9.57
2023-03-21T15:13:50.293Z,9.93
2023-03-21T15:16:18.419Z,7.73
2023-03-21T15:18:46.818Z,9.20
2023-03-21T15:21:20.581Z,10.27
2023-03-21T15:23:49.199Z,9.40
2023-03-21T15:26:19.068Z,10.43
2023-03-21T15:28:49.092Z,6.80
2023-03-21T15:31:19.319Z,11.23
2023-03-21T15:33:48.982Z,8.93
2023-03-21T15:36:22.029Z,15.23
2023-03-21T15:38:49.900Z,7.70
2023-03-21T15:41:37.474Z,7.50
2023-03-21T15:44:22.343Z,9.10
2023-03-21T15:46:52.144Z,9.13
2023-03-21T15:49:27.377Z,15.07
2023-03-21T15:52:15.503Z,8.80
2023-03-21T15:54:56.043Z,12.57
2023-03-21T15:57:30.025Z,12.40
2023-03-21T16:00:02.725Z,8.27
2023-03-21T16:02:30.998Z,12.10
2023-03-21T16:05:01.218Z,13.90
2023-03-21T16:07:28.566Z,13.63
2023-03-21T16:10:04.803Z,7.80
2023-03-21T16:12:31.887Z,8.77
2023-03-21T16:14:58.993Z,9.93
2023-03-21T16:17:51.713Z,9.80
2023-03-21T16:20:22.907Z,6.67
2023-03-21T16:22:49.965Z,11.17
2023-03-21T16:25:17.343Z,11.43
2023-03-21T16:27:45.366Z,8.73
2023-03-21T16:30:14.991Z,15.27
2023-03-21T16:32:42.414Z,9.93
2023-03-21T16:35:10.001Z,9.00
2023-03-21T16:37:37.151Z,11.43
2023-03-21T16:40:15.538Z,7.67
2023-03-21T16:42:43.921Z,8.63
2023-03-21T16:45:12.006Z,13.27
2023-03-21T16:47:39.128Z,8.60
2023-03-21T16:50:39.156Z,14.37
2023-03-21T16:53:06.418Z,14.40
2023-03-21T16:55:34.890Z,11.23
2023-03-21T16:58:02.418Z,12.67
2023-03-21T17:00:30.937Z,10.57
2023-03-21T17:03:01.700Z,15.00
2023-03-21T17:05:31.014Z,19.63
2023-03-21T17:08:02.240Z,16.83
2023-03-21T17:10:31.360Z,19.03
2023-03-21T17:12:58.396Z,18.53
2023-03-21T17:15:25.678Z,13.33
2023-03-21T17:17:55.586Z,21.43
2023-03-21T17:20:26.284Z,15.17
2023-03-21T17:22:53.276Z,14.33
2023-03-21T17:25:20.971Z,13.07
2023-03-21T17:27:48.494Z,15.17
2023-03-21T17:30:40.395Z,13.30
2023-03-21T17:33:07.823Z,10.73
2023-03-21T17:35:34.921Z,37.00
2023-03-21T17:38:01.958Z,18.37
2023-03-21T17:40:33.505Z,16.67
2023-03-21T17:43:01.794Z,21.47
2023-03-21T17:45:29.806Z,12.17
2023-03-21T17:47:56.883Z,10.27
2023-03-21T17:50:26.892Z,9.87
2023-03-21T17:52:56.552Z,12.57
2023-03-21T17:55:23.888Z,21.23
2023-03-21T17:57:50.926Z,18.13
2023-03-21T18:00:23.035Z,19.50
2023-03-21T18:02:50.773Z,17.27
2023-03-21T18:05:18.630Z,19.60
2023-03-21T18:10:33.604Z,26.13
2023-03-21T18:13:00.855Z,24.50
2023-03-21T18:15:30.456Z,28.97
2023-03-21T18:17:57.943Z,21.77
2023-03-21T18:20:45.501Z,21.80
2023-03-21T18:23:14.776Z,22.00
2023-03-21T18:25:41.934Z,28.73
2023-03-21T18:28:11.811Z,14.27
2023-03-21T18:33:27.656Z,19.67
2023-03-21T18:35:59.409Z,15.80
2023-03-21T18:38:28.042Z,16.37
2023-03-21T18:40:55.595Z,18.00
2023-03-21T18:46:10.185Z,19.40
2023-03-21T18:48:37.238Z,16.17
2023-03-21T18:51:04.828Z,17.10
2023-03-21T18:53:32.129Z,16.40
2023-03-21T18:55:59.187Z,15.80
2023-03-21T18:58:26.252Z,15.93
2023-03-21T19:00:54.027Z,16.97
2023-03-21T19:03:35.405Z,15.30
2023-03-21T19:06:04.995Z,16.83
2023-03-21T19:08:32.655Z,21.73
2023-03-21T19:11:03.282Z,15.30
2023-03-21T19:13:33.282Z,14.13
2023-03-21T19:16:02.400Z,20.40
2023-03-21T19:18:52.084Z,19.73
2023-03-21T19:21:19.342Z,20.30
2023-03-21T19:26:33.952Z,17.47
2023-03-21T19:29:01.375Z,39.10
2023-03-21T19:31:28.500Z,43.17
2023-03-21T19:34:01.830Z,15.43
2023-03-21T19:36:34.440Z,27.97
2023-03-21T19:39:02.166Z,20.20
2023-03-21T19:41:29.180Z,24.23
2023-03-21T19:43:56.647Z,20.50
2023-03-21T19:46:25.594Z,15.60
2023-03-21T19:48:57.641Z,19.50
2023-03-21T19:51:29.465Z,14.97
2023-03-21T19:53:58.515Z,20.77
2023-03-21T19:56:27.328Z,20.40
2023-03-21T19:58:56.227Z,20.07
2023-03-21T20:01:24.863Z,17.50
2023-03-21T20:03:52.659Z,19.30
2023-03-21T20:06:22.487Z,16.90
2023-03-21T20:09:27.309Z,18.77
2023-03-21T20:11:37.418Z,18.07
2023-03-21T20:14:05.426Z,21.43
2023-03-21T20:16:35.813Z,24.03
2023-03-21T20:19:06.171Z,18.77
2023-03-21T20:21:44.443Z,23.47
2023-03-21T20:24:16.972Z,29.50
2023-03-21T20:26:45.284Z,23.00
2023-03-21T20:30:06.990Z,23.77
2023-03-21T20:32:00.150Z,21.87
2023-03-21T20:34:29.087Z,23.93
2023-03-21T20:36:58.465Z,27.20
2023-03-21T20:39:28.628Z,24.20
2023-03-21T20:41:58.949Z,28.50
2023-03-21T20:44:57.172Z,23.77
2023-03-21T20:47:14.606Z,26.40
2023-03-21T20:49:41.682Z,25.57
2023-03-21T20:52:54.503Z,23.23
2023-03-21T20:54:57.589Z,23.40
2023-03-21T20:57:27.289Z,24.90
2023-03-21T20:59:55.220Z,24.97
2023-03-21T21:02:22.900Z,26.23
2023-03-21T21:05:21.483Z,24.17
2023-03-21T21:07:37.039Z,23.33
2023-03-21T21:10:04.468Z,26.03
2023-03-21T21:12:31.844Z,20.77
2023-03-21T21:14:58.863Z,20.93
2023-03-21T21:17:48.493Z,24.27
2023-03-21T21:20:17.059Z,25.40
2023-03-21T21:22:58.439Z,23.50
2023-03-21T21:25:26.328Z,22.60
2023-03-21T21:27:53.921Z,23.77
2023-03-21T21:33:02.552Z,21.47
2023-03-21T21:35:29.756Z,22.47
2023-03-21T21:37:56.832Z,23.60
2023-03-21T21:40:24.296Z,31.83
2023-03-21T21:42:51.840Z,20.67
2023-03-21T21:45:19.375Z,27.03
2023-03-21T21:47:46.739Z,24.13
2023-03-21T21:50:14.546Z,27.13
2023-03-21T21:52:43.925Z,26.20
2023-03-21T21:55:13.214Z,22.17
2023-03-21T21:57:41.120Z,22.27
2023-03-21T22:00:13.685Z,24.80
2023-03-21T22:02:41.558Z,24.87
2023-03-21T22:05:09.473Z,22.73
2023-03-21T22:07:37.634Z,25.23
2023-03-21T22:10:05.317Z,22.03
2023-03-21T22:12:32.641Z,21.33
2023-03-21T22:15:00.070Z,24.83
2023-03-21T22:17:27.104Z,31.00
2023-03-21T22:20:05.093Z,24.00
2023-03-21T22:22:34.824Z,21.80
2023-03-21T22:25:02.225Z,24.27
2023-03-21T22:27:29.656Z,27.10
2023-03-21T22:29:56.607Z,23.63
2023-03-21T22:32:23.919Z,27.17
2023-03-21T22:34:51.275Z,30.73
2023-03-21T22:37:18.580Z,29.17
2023-03-21T22:39:45.995Z,22.83
2023-03-21T22:42:12.980Z,26.17
2023-03-21T22:44:39.939Z,23.27
2023-03-21T22:47:09.447Z,25.30
2023-03-21T22:49:36.913Z,24.07
2023-03-21T22:52:05.164Z,24.97
2023-03-21T22:54:32.771Z,22.97
2023-03-21T22:57:00.406Z,23.57
2023-03-21T22:59:27.894Z,26.03
2023-03-21T23:01:55.083Z,23.00
2023-03-21T23:04:22.515Z,23.63
2023-03-21T23:06:49.624Z,22.00
2023-03-21T23:09:17.739Z,23.97
2023-03-21T23:11:46.262Z,27.40
2023-03-21T23:14:15.317Z,20.23
2023-03-21T23:16:45.125Z,20.60
2023-03-21T23:19:12.174Z,21.57
2023-03-21T23:21:39.374Z,22.73
2023-03-21T23:24:07.704Z,22.90
2023-03-21T23:26:35.376Z,22.27
2023-03-21T23:29:02.548Z,21.67
2023-03-21T23:31:29.720Z,21.87
2023-03-21T23:33:59.214Z,23.57
2023-03-21T23:36:26.613Z,22.00
2023-03-21T23:38:53.655Z,21.77
2023-03-21T23:41:22.465Z,21.63
2023-03-21T23:43:49.995Z,21.37
2023-03-21T23:46:18.321Z,22.33
2023-03-21T23:48:46.522Z,19.53
2023-03-21T23:51:16.357Z,20.50
2023-03-21T23:53:44.545Z,17.77
2023-03-21T23:56:32.447Z,16.97
2023-03-21T23:58:59.687Z,18.67
